• Join FlightAware (Why Join?)
  • Login
  • US Flag 
11:23PM EST


 

Airport Tracker/Info


-or-


 

Live Flight TrackerFlight Track Log ✈ N1576C ✈ 27-Feb-2014 ✈ KCOI - KCOI

Flight Track Log - Related Links

Times and Time Zones

All times are in EST time to prevent confusion due to time zone crossing. See the N1576C flight status page for this flight to view local times or setup timezone preferences in your user account.

Time Position Orientation Groundspeed Altitude Reporting Facility
EST Latitude Longitude Course Direction KTS MPH feet Rate Location/Type
02:58PM 28.3500 -80.7167 147° Southeast 70 81 600  Level Orlando TRACON
02:59PM 28.3500 -80.7333 270° West 78 90 1,200 540 Climbing Orlando TRACON
03:00PM 28.3667 -80.7500 319° Northwest 79 91 1,600 480 Climbing Orlando TRACON
03:01PM 28.3667 -80.7667 270° West 93 107 2,200 540 Climbing Orlando TRACON
03:02PM 28.3500 -80.7667 180° South 97 112 2,800 420 Climbing Orlando TRACON
03:03PM 28.3167 -80.7333 139° Southeast 106 122 3,100  Climbing Orlando TRACON
03:04PM 28.3416 -80.6855 147° Southeast  Level Estimated
03:04PM 28.3000 -80.7167 139° Southeast 118 136 2,900  Level Orlando TRACON
03:05PM 28.2833 -80.7000 139° Southeast 110 127 3,000 60 Climbing Orlando TRACON
03:06PM 28.2500 -80.6833 156° South 106 122 3,100  Climbing Orlando TRACON
03:07PM 28.2333 -80.6667 139° Southeast 110 127 3,100  Level Orlando TRACON
03:08PM 28.2000 -80.6333 139° Southeast 123 142 3,100 -60 Level Orlando TRACON
03:09PM 28.1667 -80.6167 156° South 121 139 3,000 -60 Descending Orlando TRACON
03:10PM 28.1333 -80.6000 156° South 110 127 3,000  Level Orlando TRACON
03:11PM 28.1167 -80.6000 180° South 111 128 3,100  Climbing Orlando TRACON
03:12PM 28.0833 -80.6000 180° South 110 127 3,000 -60 Descending Orlando TRACON
03:13PM 28.0500 -80.6167 204° Southwest 109 125 3,000  Level Orlando TRACON
03:14PM 28.0167 -80.6333 204° Southwest 107 123 3,100  Climbing Orlando TRACON
03:15PM 28.0167 -80.6500 270° West 93 107 3,100 -60 Level Orlando TRACON
03:16PM 28.0167 -80.6833 270° West 93 107 3,000  Descending Orlando TRACON
03:17PM 28.0167 -80.7167 270° West 90 104 3,100  Climbing Orlando TRACON
03:18PM 28.0333 -80.7000 41° Northeast 127 146 3,000 -60 Descending Orlando TRACON
03:19PM 28.0500 -80.6833 41° Northeast 107 123 3,000 -300 Level Orlando TRACON
03:20PM 28.0833 -80.6667 24° Northeast 114 131 2,500 -360 Descending Orlando TRACON
03:21PM 28.1167 -80.6500 24° Northeast 109 125 2,300 -480 Descending Orlando TRACON
03:22PM 28.1500 -80.6500 360° North 116 133 1,600 -720 Descending Orlando TRACON
03:23PM 28.1833 -80.6333 24° Northeast 104 120 900 -600 Descending Orlando TRACON
03:24PM 28.2000 -80.6167 41° Northeast 91 105 500 -240 Descending Orlando TRACON
03:25PM 28.2333 -80.6167 360° North 106 122 500 300 Level Orlando TRACON
03:26PM 28.2333 -80.5833 90° East 95 109 1,200 660 Climbing Orlando TRACON
03:27PM 28.2333 -80.5667 90° East 89 102 1,800 540 Climbing Orlando TRACON
03:28PM 28.2167 -80.5333 120° Southeast 93 107 2,400 480 Climbing Orlando TRACON
03:29PM 28.2333 -80.5167 41° Northeast 89 102 2,800 360 Climbing Orlando TRACON
03:30PM 28.2500 -80.5167 360° North 88 101 3,100 60 Climbing Orlando TRACON
03:31PM 28.2500 -80.5500 270° West 88 101 3,000 -60 Descending Orlando TRACON
03:32PM 28.2500 -80.5667 270° West 83 96 3,000  Level Orlando TRACON
03:33PM 28.2667 -80.6000 300° West 88 101 3,000  Level Orlando TRACON
03:34PM 28.2667 -80.6333 270° West 97 112 3,100  Climbing Orlando TRACON
03:35PM 28.2667 -80.6500 270° West 93 107 3,100 -60 Level Orlando TRACON
03:36PM 28.2833 -80.6833 300° West 95 109 3,000 -180 Descending Orlando TRACON
03:37PM 28.2833 -80.7167 270° West 97 112 2,800 -360 Descending Orlando TRACON
03:38PM 28.3000 -80.7500 300° West 101 116 2,400 -300 Descending Orlando TRACON
03:39PM 28.3000 -80.7833 270° West 98 113 2,200 -120 Descending Orlando TRACON
03:40PM 28.3000 -80.8000 270° West 97 112 2,200  Level Orlando TRACON
03:41PM 28.3167 -80.8333 300° West 96 110 2,200 -60 Level Orlando TRACON
03:42PM 28.3167 -80.8667 270° West 99 114 2,100 -60 Descending Orlando TRACON
03:43PM 28.3333 -80.9000 300° West 95 109 2,100  Level Orlando TRACON
03:44PM 28.3500 -80.9167 319° Northwest 108 124 2,100  Level Orlando TRACON
03:45PM 28.3667 -80.8833 60° Northeast 109 125 2,100 -60 Level Orlando TRACON
03:46PM 28.4000 -80.8667 24° Northeast 108 124 2,000 -180 Descending Orlando TRACON
03:47PM 28.3833 -80.8333 120° Southeast 117 135 1,800 -240 Descending Orlando TRACON
03:48PM 28.3833 -80.8000 90° East 115 132 1,600 -120 Descending Orlando TRACON
03:49PM 28.3667 -80.7667 120° Southeast 110 127 1,600 -420 Level Orlando TRACON
03:50PM 28.3500 -80.7333 120° Southeast 108 124 800 -660 Descending Orlando TRACON
03:51PM 28.3500 -80.7000 90° East 105 121 300 -300 Descending Orlando TRACON
03:52PM 28.3333 -80.6833 139° Southeast 105 121 200 -60 Descending Orlando TRACON
03:54PM 28.3333 -80.6833 319° Northwest 105 121 200  Level Orlando TRACON
03:56PM 28.3333 -80.6833 319° Northwest 105 121 200  Level Orlando TRACON
03:58PM 28.3333 -80.6833 319° Northwest 105 121 200  Level Orlando TRACON
04:00PM 28.3333 -80.6833 319° Northwest 105 121 200  Level Orlando TRACON
04:02PM 28.3333 -80.6833 319° Northwest 105 121 200  Level Orlando TRACON
04:04PM 28.3333 -80.6833 319° Northwest 105 121 200  Level Orlando TRACON
04:06PM 28.3333 -80.6833 319° Northwest 105 121 200  Level Orlando TRACON
04:08PM 28.3333 -80.6833 319° Northwest 105 121 200  Level Orlando TRACON
04:10PM 28.3333 -80.6833 319° Northwest 105 121 200  Level Orlando TRACON
04:12PM 28.3333 -80.6833 319° Northwest 105 121 200  Level Orlando TRACON
04:14PM 28.3333 -80.6833 319° Northwest 105 121 200  Level Orlando TRACON
04:16PM 28.3333 -80.6833 319° Northwest 105 121 200  Level Orlando TRACON
04:19PM 28.3333 -80.6833 319° Northwest 105 121 200  Level Orlando TRACON